Time;durP1;ratioP1;P1;durP2;ratioP2;P2;SDS_P1;SDS_P2;PMS_P1;PMS_P2;Temp;Humidity;BMP_temperature;BMP_pressure;BME280_temperature;BME280_humidity;BME280_pressure;Samples;Min_cycle;Max_cycle;Signal;HPM_P1;HPM_P2
2022/03/29 00:00:36;;;;;;;18.27;11.13;;;9.40;99.90;;;;;;5114633;28;20449;-81
2022/03/29 00:03:03;;;;;;;16.80;11.20;;;9.40;99.90;;;;;;5111804;28;20507;-81
2022/03/29 00:05:30;;;;;;;20.07;11.40;;;9.40;99.90;;;;;;5117850;28;20485;-82
2022/03/29 00:07:57;;;;;;;16.80;10.93;;;9.30;99.90;;;;;;5117645;28;20440;-82
2022/03/29 00:10:26;;;;;;;18.13;12.70;;;9.30;99.90;;;;;;5118627;28;20456;-81
2022/03/29 00:12:53;;;;;;;19.30;11.70;;;9.30;99.90;;;;;;5119459;28;20518;-82
2022/03/29 00:15:21;;;;;;;21.77;12.63;;;9.30;99.90;;;;;;5118921;28;20535;-83
2022/03/29 00:17:48;;;;;;;17.43;11.60;;;9.30;99.90;;;;;;5118940;28;20466;-82
2022/03/29 00:20:15;;;;;;;15.73;11.63;;;9.20;99.90;;;;;;5118380;28;20481;-82
2022/03/29 00:22:42;;;;;;;17.53;11.30;;;9.20;99.90;;;;;;5117731;28;20515;-81
2022/03/29 00:25:10;;;;;;;20.40;13.20;;;9.20;99.90;;;;;;5117413;28;20429;-82
2022/03/29 00:27:38;;;;;;;18.90;13.07;;;9.20;99.90;;;;;;5110556;28;20505;-82
2022/03/29 00:30:07;;;;;;;20.57;13.33;;;9.20;99.90;;;;;;5117609;28;20449;-82
2022/03/29 00:32:34;;;;;;;20.50;13.60;;;9.20;99.90;;;;;;5117852;28;20461;-83
2022/03/29 00:35:02;;;;;;;18.00;12.53;;;9.20;99.90;;;;;;5110906;28;20474;-82
2022/03/29 00:37:28;;;;;;;18.63;13.10;;;9.20;99.90;;;;;;5117448;28;20437;-82
2022/03/29 00:39:55;;;;;;;18.90;13.40;;;9.20;99.90;;;;;;5114917;28;20520;-83
2022/03/29 00:42:22;;;;;;;20.27;13.60;;;9.20;99.90;;;;;;5106058;28;20463;-82
2022/03/29 00:44:51;;;;;;;24.83;13.97;;;9.20;99.90;;;;;;5114735;28;20504;-81
2022/03/29 00:47:17;;;;;;;17.13;12.30;;;9.10;99.90;;;;;;5115189;28;20481;-83
2022/03/29 00:49:44;;;;;;;19.90;14.50;;;9.10;99.90;;;;;;5114275;28;20446;-83
2022/03/29 00:52:11;;;;;;;18.87;13.27;;;9.10;99.90;;;;;;5106879;28;20457;-83
2022/03/29 00:54:41;;;;;;;18.40;13.70;;;9.10;99.90;;;;;;5111315;28;20471;-82
2022/03/29 00:57:08;;;;;;;21.97;14.07;;;9.10;99.90;;;;;;5105173;28;20481;-81
2022/03/29 00:59:35;;;;;;;21.73;13.40;;;9.10;99.90;;;;;;5096874;28;20516;-81
2022/03/29 01:02:04;;;;;;;18.03;12.77;;;9.10;99.90;;;;;;5097386;28;20976;-80
2022/03/29 01:04:31;;;;;;;22.50;14.23;;;9.00;99.90;;;;;;5097216;28;20473;-81
2022/03/29 01:06:59;;;;;;;20.10;14.53;;;9.00;99.90;;;;;;5097311;28;20453;-81
2022/03/29 01:09:26;;;;;;;19.90;14.17;;;9.00;99.90;;;;;;5096636;28;20449;-81
2022/03/29 01:11:53;;;;;;;19.27;13.73;;;9.10;99.90;;;;;;5097439;28;20522;-81
2022/03/29 01:14:21;;;;;;;20.83;14.03;;;9.00;99.90;;;;;;5096700;28;20553;-81
2022/03/29 01:19:36;;;;;;;20.63;14.67;;;9.00;99.90;;;;;;5091074;28;20996;-81
2022/03/29 01:22:07;;;;;;;17.77;14.30;;;9.00;99.90;;;;;;5095705;28;20444;-81
2022/03/29 01:24:35;;;;;;;22.13;14.40;;;8.90;99.90;;;;;;5096299;28;20482;-81
2022/03/29 01:27:04;;;;;;;24.63;16.00;;;9.00;99.90;;;;;;5097515;28;20961;-81
2022/03/29 01:29:32;;;;;;;18.30;14.00;;;9.00;99.90;;;;;;5098081;28;20452;-81
2022/03/29 01:32:02;;;;;;;23.73;15.27;;;9.00;99.90;;;;;;5098118;28;20457;-81
2022/03/29 01:34:30;;;;;;;17.97;13.73;;;9.00;99.90;;;;;;5098633;28;20512;-82
2022/03/29 01:36:57;;;;;;;20.43;13.80;;;9.00;99.90;;;;;;5103525;28;20533;-82
2022/03/29 01:39:25;;;;;;;19.07;13.60;;;9.00;99.90;;;;;;5102432;28;20483;-81
2022/03/29 01:41:52;;;;;;;20.07;14.53;;;9.00;99.90;;;;;;5102470;28;20452;-82
2022/03/29 01:44:19;;;;;;;20.37;15.27;;;9.00;99.90;;;;;;5098848;28;20484;-81
2022/03/29 01:46:46;;;;;;;25.30;16.50;;;9.00;99.90;;;;;;5099309;28;20445;-81
2022/03/29 01:49:15;;;;;;;24.50;16.20;;;9.00;99.90;;;;;;5099626;28;20452;-82
2022/03/29 01:51:41;;;;;;;21.00;15.50;;;9.10;99.90;;;;;;5102700;28;20457;-82
2022/03/29 01:54:08;;;;;;;25.73;15.17;;;9.10;99.90;;;;;;5101750;28;20477;-82
2022/03/29 01:56:37;;;;;;;22.20;16.80;;;9.10;99.90;;;;;;5101672;28;20453;-82
2022/03/29 01:59:06;;;;;;;22.60;16.50;;;9.10;99.90;;;;;;5101781;28;20998;-82
2022/03/29 02:01:40;;;;;;;20.33;16.03;;;9.20;99.90;;;;;;5102646;28;20475;-82
2022/03/29 02:04:07;;;;;;;23.30;17.07;;;9.20;99.90;;;;;;5100812;28;20512;-82
2022/03/29 02:06:33;;;;;;;25.77;16.90;;;9.20;99.90;;;;;;5099553;28;20521;-83
2022/03/29 02:09:00;;;;;;;23.23;17.43;;;9.20;99.90;;;;;;5092860;28;20453;-83
2022/03/29 02:11:27;;;;;;;24.30;17.97;;;9.10;99.90;;;;;;5096711;28;20518;-83
2022/03/29 02:13:55;;;;;;;26.87;18.00;;;9.10;99.90;;;;;;5089594;28;20865;-82
2022/03/29 02:16:22;;;;;;;24.60;16.63;;;9.00;99.90;;;;;;5095873;28;20457;-83
2022/03/29 02:18:49;;;;;;;27.23;17.13;;;9.00;99.90;;;;;;5100423;28;20495;-82
2022/03/29 02:21:16;;;;;;;27.77;20.50;;;9.00;99.90;;;;;;5100303;28;20453;-81
2022/03/29 02:23:43;;;;;;;30.30;19.17;;;8.80;99.90;;;;;;5100733;28;20472;-83
2022/03/29 02:26:10;;;;;;;27.30;18.67;;;8.90;99.90;;;;;;5103538;28;20461;-82
2022/03/29 02:28:37;;;;;;;22.80;18.20;;;8.90;99.90;;;;;;5102206;28;20837;-82
2022/03/29 02:31:05;;;;;;;25.73;19.10;;;8.90;99.90;;;;;;5101698;28;20989;-83
2022/03/29 02:33:32;;;;;;;30.63;20.47;;;8.90;99.90;;;;;;5105033;28;20472;-82
2022/03/29 02:35:59;;;;;;;26.00;18.80;;;8.90;99.90;;;;;;5105333;28;20537;-83
2022/03/29 02:38:25;;;;;;;31.03;19.53;;;9.00;99.90;;;;;;5106634;28;20509;-83
2022/03/29 02:40:57;;;;;;;28.87;20.20;;;8.90;99.90;;;;;;5107828;28;20452;-82
2022/03/29 02:43:24;;;;;;;30.80;21.43;;;8.90;99.90;;;;;;5106987;28;20538;-80
2022/03/29 02:45:51;;;;;;;28.60;20.63;;;8.80;99.90;;;;;;5107650;28;20457;-82
2022/03/29 02:48:19;;;;;;;32.80;23.10;;;8.90;99.90;;;;;;5108849;28;20541;-82
2022/03/29 02:50:46;;;;;;;31.07;21.90;;;8.80;99.90;;;;;;5103085;28;20539;-82
2022/03/29 02:53:15;;;;;;;30.33;21.80;;;8.80;99.90;;;;;;5101361;28;20488;-81
2022/03/29 02:55:42;;;;;;;32.70;21.53;;;8.90;99.90;;;;;;5100422;28;21014;-82
2022/03/29 02:58:10;;;;;;;28.77;20.47;;;8.90;99.90;;;;;;5102328;28;20495;-81
2022/03/29 03:00:37;;;;;;;30.50;20.67;;;8.90;99.90;;;;;;5102083;28;20491;-80
2022/03/29 03:03:06;;;;;;;33.00;21.97;;;8.80;99.90;;;;;;5099383;28;20477;-81
2022/03/29 03:05:34;;;;;;;33.53;23.90;;;8.70;99.90;;;;;;5101283;28;20471;-82
2022/03/29 03:08:02;;;;;;;38.63;25.20;;;8.60;99.90;;;;;;5100581;28;20462;-82
2022/03/29 03:10:30;;;;;;;32.93;23.70;;;8.70;99.90;;;;;;5101405;28;20458;-82
2022/03/29 03:12:57;;;;;;;34.63;24.63;;;8.60;99.90;;;;;;5100481;28;20892;-80
2022/03/29 03:15:25;;;;;;;32.20;22.90;;;8.60;99.90;;;;;;5098780;28;20498;-80
2022/03/29 03:17:53;;;;;;;36.07;23.43;;;8.60;99.90;;;;;;5100370;28;20455;-81
2022/03/29 03:20:21;;;;;;;33.90;24.10;;;8.50;99.90;;;;;;5098747;28;20480;-82
2022/03/29 03:22:50;;;;;;;33.70;24.23;;;8.60;99.90;;;;;;5099520;28;20460;-81
2022/03/29 03:25:17;;;;;;;36.77;25.47;;;8.60;99.90;;;;;;5099138;28;20448;-79
2022/03/29 03:27:44;;;;;;;33.00;24.50;;;8.60;99.90;;;;;;5099460;28;20473;-82
2022/03/29 03:30:14;;;;;;;35.17;24.40;;;8.60;99.90;;;;;;5103821;28;20453;-82
2022/03/29 03:32:41;;;;;;;32.60;23.97;;;8.50;99.90;;;;;;5097374;28;21008;-82
2022/03/29 03:35:09;;;;;;;37.03;26.17;;;8.50;99.90;;;;;;5105133;28;20463;-83
2022/03/29 03:37:36;;;;;;;36.37;24.77;;;8.50;99.90;;;;;;5101271;28;20457;-81
2022/03/29 03:40:05;;;;;;;33.73;24.80;;;8.50;99.90;;;;;;5101386;28;20499;-81
2022/03/29 03:42:32;;;;;;;35.87;24.87;;;8.50;99.90;;;;;;5106017;28;20484;-81
2022/03/29 03:44:59;;;;;;;32.97;23.23;;;8.50;99.90;;;;;;5106072;28;20492;-81
2022/03/29 03:47:26;;;;;;;33.73;24.03;;;8.50;99.90;;;;;;5108186;28;20449;-80
2022/03/29 03:49:53;;;;;;;36.50;24.50;;;8.40;99.90;;;;;;5106994;28;20449;-81
2022/03/29 03:52:20;;;;;;;44.53;24.30;;;8.50;99.90;;;;;;5106622;28;20547;-81
2022/03/29 03:54:47;;;;;;;37.53;27.20;;;8.40;99.90;;;;;;5107346;28;20457;-82
2022/03/29 03:57:15;;;;;;;35.40;25.47;;;8.40;99.90;;;;;;5106950;28;20459;-79
2022/03/29 03:59:44;;;;;;;32.03;23.73;;;8.40;99.90;;;;;;5104963;28;20482;-81
2022/03/29 04:02:11;;;;;;;41.00;25.60;;;8.50;99.90;;;;;;5104551;28;20453;-80
2022/03/29 04:04:38;;;;;;;36.10;25.97;;;8.50;99.90;;;;;;5104792;28;20485;-81
2022/03/29 04:07:05;;;;;;;35.10;27.20;;;8.50;99.90;;;;;;5104968;28;20455;-81
2022/03/29 04:09:35;;;;;;;34.77;25.97;;;8.40;99.90;;;;;;5103682;28;20516;-81
2022/03/29 04:12:02;;;;;;;36.90;27.10;;;8.30;99.90;;;;;;5101882;28;20457;-79
2022/03/29 04:14:30;;;;;;;41.73;26.27;;;8.20;99.90;;;;;;5103152;28;20899;-81
2022/03/29 04:16:57;;;;;;;37.13;27.80;;;8.10;99.90;;;;;;5102945;28;20460;-81
2022/03/29 04:19:24;;;;;;;38.27;26.60;;;8.00;99.90;;;;;;5103818;28;20540;-81
2022/03/29 04:21:51;;;;;;;36.20;26.63;;;8.10;99.90;;;;;;5103930;28;20458;-82
2022/03/29 04:24:17;;;;;;;39.93;28.10;;;8.00;99.90;;;;;;5100772;28;20470;-81
2022/03/29 04:26:44;;;;;;;45.17;28.50;;;8.00;99.90;;;;;;5103886;28;20483;-80
2022/03/29 04:29:11;;;;;;;39.83;28.50;;;8.00;99.90;;;;;;5103407;28;20458;-80
2022/03/29 04:31:39;;;;;;;41.50;27.37;;;7.90;99.90;;;;;;5105247;28;20427;-80
2022/03/29 04:34:06;;;;;;;49.07;30.83;;;7.90;99.90;;;;;;5117082;28;20462;-81
2022/03/29 04:36:33;;;;;;;48.00;31.27;;;7.90;99.90;;;;;;5117553;28;20469;-82
2022/03/29 04:39:00;;;;;;;48.90;30.20;;;7.90;99.90;;;;;;5107124;28;20455;-82
2022/03/29 04:41:27;;;;;;;49.90;32.00;;;7.90;99.90;;;;;;5115565;28;20442;-82
2022/03/29 04:43:54;;;;;;;56.17;32.97;;;7.90;99.90;;;;;;5107334;28;20492;-81
2022/03/29 04:46:20;;;;;;;59.47;33.50;;;7.80;99.90;;;;;;5110518;28;20436;-82
2022/03/29 04:48:52;;;;;;;61.63;36.20;;;7.80;99.90;;;;;;5109747;28;20443;-82
2022/03/29 04:51:19;;;;;;;63.03;36.00;;;7.80;99.90;;;;;;5114494;28;20868;-82
2022/03/29 04:53:45;;;;;;;69.77;37.37;;;7.80;99.90;;;;;;5107399;28;20470;-82
2022/03/29 04:56:12;;;;;;;74.53;39.87;;;7.70;99.90;;;;;;5107785;28;20452;-82
2022/03/29 04:58:39;;;;;;;80.40;39.23;;;7.70;99.90;;;;;;5109176;28;20447;-81
2022/03/29 05:01:06;;;;;;;75.47;39.30;;;7.70;99.90;;;;;;5099428;28;20476;-82
2022/03/29 05:03:33;;;;;;;73.40;37.73;;;7.60;99.90;;;;;;5108068;28;20513;-81
2022/03/29 05:06:01;;;;;;;70.30;37.30;;;7.60;99.90;;;;;;5106720;28;20837;-82
2022/03/29 05:08:28;;;;;;;80.47;41.23;;;7.70;99.90;;;;;;5108546;28;20456;-82
2022/03/29 05:10:56;;;;;;;93.03;41.97;;;7.70;99.90;;;;;;5107036;28;20460;-81
2022/03/29 05:13:23;;;;;;;88.70;42.50;;;7.60;99.90;;;;;;5106415;28;20527;-81
2022/03/29 05:15:50;;;;;;;94.13;43.70;;;7.60;99.90;;;;;;5107572;28;20474;-82
2022/03/29 05:18:17;;;;;;;100.70;46.50;;;7.60;99.90;;;;;;5108629;28;20459;-80
2022/03/29 05:20:44;;;;;;;98.43;46.90;;;7.60;99.90;;;;;;5108792;28;20495;-80
2022/03/29 05:23:12;;;;;;;106.30;49.80;;;7.60;99.90;;;;;;5108857;28;20471;-80
2022/03/29 05:25:38;;;;;;;110.53;47.87;;;7.50;99.90;;;;;;5109555;28;20552;-81
2022/03/29 05:28:06;;;;;;;99.27;46.57;;;7.50;99.90;;;;;;5108766;28;20502;-81
2022/03/29 05:30:33;;;;;;;113.03;48.00;;;7.60;99.90;;;;;;5108005;28;20455;-81
2022/03/29 05:33:00;;;;;;;116.63;49.67;;;7.60;99.90;;;;;;5106669;28;20741;-79
2022/03/29 05:35:29;;;;;;;112.60;49.67;;;7.60;99.90;;;;;;5106972;28;20534;-81
2022/03/29 05:37:57;;;;;;;121.07;50.00;;;7.70;99.90;;;;;;5107828;28;20447;-82
2022/03/29 05:40:26;;;;;;;114.20;48.73;;;7.70;99.90;;;;;;5103448;28;20844;-78
2022/03/29 05:42:53;;;;;;;124.67;51.13;;;7.70;99.90;;;;;;5097078;28;20486;-80
2022/03/29 05:45:20;;;;;;;125.10;51.87;;;7.80;99.90;;;;;;5096872;28;20852;-78
2022/03/29 05:50:32;;;;;;;119.83;49.57;;;7.80;99.90;;;;;;5121705;22;20448;-80
2022/03/29 05:53:00;;;;;;;129.17;51.80;;;7.80;99.90;;;;;;5053734;28;20558;-80
2022/03/29 05:55:29;;;;;;;117.53;52.20;;;7.80;99.90;;;;;;5059905;28;20922;-81
2022/03/29 05:57:56;;;;;;;125.60;54.10;;;7.90;99.90;;;;;;5044462;28;20816;-82
2022/03/29 06:00:24;;;;;;;129.83;52.50;;;7.90;99.90;;;;;;5059345;28;20491;-82
2022/03/29 06:02:52;;;;;;;122.07;50.00;;;8.00;99.90;;;;;;5057432;28;20452;-81
2022/03/29 06:05:19;;;;;;;119.57;49.90;;;7.90;99.90;;;;;;5058201;28;21027;-83
2022/03/29 06:07:45;;;;;;;104.10;47.60;;;7.90;99.90;;;;;;5057604;28;20473;-84
2022/03/29 06:10:12;;;;;;;102.97;46.57;;;7.80;99.90;;;;;;5053742;28;20964;-83
2022/03/29 06:12:44;;;;;;;106.00;47.10;;;7.80;99.90;;;;;;5048620;28;20516;-81
2022/03/29 06:15:13;;;;;;;88.97;44.67;;;7.80;99.90;;;;;;5049936;28;20432;-84
2022/03/29 06:17:40;;;;;;;96.77;43.27;;;7.80;99.90;;;;;;5057767;28;20445;-83
2022/03/29 06:20:09;;;;;;;90.87;44.30;;;7.80;99.90;;;;;;5056739;28;20500;-80
2022/03/29 06:22:39;;;;;;;87.80;40.87;;;7.90;99.90;;;;;;5050377;28;20477;-81
2022/03/29 06:25:08;;;;;;;81.73;44.50;;;7.80;99.90;;;;;;5052071;28;20492;-81
2022/03/29 06:27:35;;;;;;;85.13;40.90;;;7.90;99.90;;;;;;5038732;28;20468;-82
2022/03/29 06:30:04;;;;;;;91.87;45.07;;;7.90;99.90;;;;;;5045331;28;20475;-82
2022/03/29 06:32:32;;;;;;;74.50;40.57;;;7.80;99.90;;;;;;5050930;28;20471;-82
2022/03/29 06:34:59;;;;;;;76.20;40.50;;;7.90;99.90;;;;;;5056446;28;20464;-82
2022/03/29 06:37:26;;;;;;;72.20;37.67;;;7.80;99.90;;;;;;5050941;28;20485;-83
2022/03/29 06:39:53;;;;;;;75.03;40.10;;;7.90;99.90;;;;;;5056830;28;20582;-82
2022/03/29 06:42:20;;;;;;;79.60;40.57;;;7.90;99.90;;;;;;5056958;28;20906;-82
2022/03/29 06:44:47;;;;;;;86.47;41.30;;;8.00;99.90;;;;;;5046924;28;20489;-82
2022/03/29 06:47:16;;;;;;;71.20;38.57;;;8.00;99.90;;;;;;5040008;28;20454;-81
2022/03/29 06:49:43;;;;;;;60.27;37.70;;;8.10;99.90;;;;;;5051479;28;21072;-82
2022/03/29 06:52:10;;;;;;;59.13;36.03;;;8.10;99.90;;;;;;5053188;28;20487;-82
2022/03/29 06:54:38;;;;;;;59.67;35.00;;;8.20;99.90;;;;;;5042605;28;20456;-82
2022/03/29 06:57:05;;;;;;;66.87;36.60;;;8.30;99.90;;;;;;5056842;28;20456;-82
2022/03/29 06:59:32;;;;;;;55.60;32.57;;;8.20;99.90;;;;;;5057238;28;20981;-82
2022/03/29 07:01:58;;;;;;;56.60;33.90;;;8.30;99.90;;;;;;5055471;28;20996;-83
2022/03/29 07:04:27;;;;;;;53.13;33.67;;;8.20;99.90;;;;;;5054171;28;20464;-82
2022/03/29 07:06:53;;;;;;;65.13;35.67;;;8.40;99.90;;;;;;5046625;28;20453;-82
2022/03/29 07:12:05;;;;;;;57.33;34.37;;;8.60;99.90;;;;;;5039121;28;20495;-83
2022/03/29 07:14:32;;;;;;;62.50;39.47;;;8.70;99.90;;;;;;5055540;28;20475;-82
2022/03/29 07:16:59;;;;;;;66.87;38.40;;;8.60;99.90;;;;;;5057394;28;20457;-82
2022/03/29 07:19:28;;;;;;;58.90;36.57;;;8.70;99.90;;;;;;5060241;28;20455;-82
2022/03/29 07:21:55;;;;;;;62.40;36.60;;;8.60;99.90;;;;;;5060158;28;20492;-82
2022/03/29 07:24:21;;;;;;;59.37;39.10;;;8.60;99.90;;;;;;5059997;28;20460;-82
2022/03/29 07:26:49;;;;;;;82.80;43.17;;;8.60;99.90;;;;;;5059578;28;20458;-82
2022/03/29 07:29:15;;;;;;;78.03;42.33;;;8.50;99.90;;;;;;5058911;28;20457;-82
2022/03/29 07:31:43;;;;;;;83.10;43.20;;;8.70;99.90;;;;;;5061112;28;20466;-83
2022/03/29 07:34:09;;;;;;;79.80;44.30;;;8.80;99.90;;;;;;5052106;28;20451;-82
2022/03/29 07:36:38;;;;;;;85.67;43.30;;;8.80;99.90;;;;;;5052836;28;20461;-83
2022/03/29 07:39:05;;;;;;;92.10;46.60;;;9.00;99.90;;;;;;5059358;28;20465;-81
2022/03/29 07:41:33;;;;;;;108.97;52.07;;;9.10;99.90;;;;;;5041284;28;20497;-82
2022/03/29 07:43:59;;;;;;;101.87;48.07;;;8.80;99.90;;;;;;5040761;28;20458;-83
2022/03/29 07:46:26;;;;;;;120.07;51.93;;;8.90;99.90;;;;;;5056863;28;20458;-82
2022/03/29 07:48:53;;;;;;;96.77;49.00;;;8.60;99.90;;;;;;5060254;28;20456;-82
2022/03/29 07:51:20;;;;;;;100.93;51.27;;;8.50;99.90;;;;;;5060060;28;20478;-82
2022/03/29 07:53:48;;;;;;;97.53;49.80;;;8.40;99.90;;;;;;5063170;28;20445;-82
2022/03/29 07:56:15;;;;;;;83.60;44.97;;;8.40;99.90;;;;;;5063657;28;20555;-81
2022/03/29 07:58:42;;;;;;;100.53;49.97;;;8.50;99.90;;;;;;5049524;28;20449;-82
2022/03/29 08:01:09;;;;;;;80.37;41.47;;;8.50;99.90;;;;;;5054881;28;20485;-82
2022/03/29 08:03:36;;;;;;;62.63;36.53;;;8.50;99.90;;;;;;5055798;28;20890;-83
2022/03/29 08:06:04;;;;;;;59.97;37.93;;;8.50;99.90;;;;;;5052458;28;20449;-81
2022/03/29 08:08:32;;;;;;;58.73;35.40;;;8.50;99.90;;;;;;5048913;28;20506;-82
2022/03/29 08:11:01;;;;;;;69.23;39.40;;;8.60;99.90;;;;;;5054025;28;20466;-83
2022/03/29 08:13:28;;;;;;;57.17;36.70;;;8.60;99.90;;;;;;5060323;28;21000;-83
2022/03/29 08:15:56;;;;;;;53.13;36.03;;;8.70;99.90;;;;;;5052996;28;20928;-82
2022/03/29 08:18:23;;;;;;;63.40;38.30;;;8.80;99.90;;;;;;5065066;28;20563;-82
2022/03/29 08:20:50;;;;;;;68.43;40.60;;;8.80;99.90;;;;;;5051920;28;20944;-82
2022/03/29 08:23:16;;;;;;;63.10;37.77;;;8.80;99.90;;;;;;5055347;28;20465;-79
2022/03/29 08:25:44;;;;;;;75.60;40.83;;;8.90;99.90;;;;;;5061306;28;20452;-82
2022/03/29 08:28:14;;;;;;;88.40;46.20;;;8.90;99.90;;;;;;5054455;28;20463;-81
2022/03/29 08:30:41;;;;;;;88.27;43.57;;;8.80;99.90;;;;;;5047292;28;20481;-81
2022/03/29 08:33:08;;;;;;;89.13;44.13;;;8.80;99.90;;;;;;5057172;28;20471;-82
2022/03/29 08:35:38;;;;;;;84.77;44.83;;;8.90;99.90;;;;;;5053282;28;20450;-81
2022/03/29 08:38:05;;;;;;;77.80;44.30;;;9.00;99.90;;;;;;5051005;28;20456;-80
2022/03/29 08:40:33;;;;;;;71.90;40.80;;;9.00;99.90;;;;;;5052489;28;20476;-82
2022/03/29 08:43:00;;;;;;;70.27;40.93;;;9.00;99.90;;;;;;5055476;28;20526;-81
2022/03/29 08:45:30;;;;;;;70.30;39.90;;;9.10;99.90;;;;;;5050594;28;20447;-79
2022/03/29 08:48:01;;;;;;;77.73;44.83;;;9.10;99.90;;;;;;5051679;28;20451;-82
2022/03/29 08:50:31;;;;;;;75.70;41.87;;;9.30;99.90;;;;;;5051408;28;20974;-81
2022/03/29 08:53:02;;;;;;;73.53;42.60;;;9.40;99.90;;;;;;5052371;28;20459;-81
2022/03/29 08:55:29;;;;;;;76.33;44.43;;;9.50;99.90;;;;;;5049476;28;20475;-79
2022/03/29 08:57:57;;;;;;;78.40;44.97;;;9.60;99.90;;;;;;5050177;28;20531;-80
2022/03/29 09:00:24;;;;;;;63.67;40.33;;;9.60;99.90;;;;;;5052024;28;20459;-79
2022/03/29 09:02:53;;;;;;;69.87;43.23;;;9.80;99.90;;;;;;5057484;28;20461;-81
2022/03/29 09:05:24;;;;;;;80.10;43.53;;;9.80;99.90;;;;;;5051779;28;20447;-81
2022/03/29 09:07:53;;;;;;;86.37;46.00;;;9.80;99.90;;;;;;5050533;28;20487;-80
2022/03/29 09:10:21;;;;;;;75.80;45.60;;;9.70;99.90;;;;;;5056277;28;20490;-80
2022/03/29 09:12:51;;;;;;;88.27;48.93;;;9.80;99.90;;;;;;5052088;28;20491;-82
2022/03/29 09:15:18;;;;;;;86.53;46.00;;;9.70;99.90;;;;;;5058903;28;20490;-81
2022/03/29 09:17:47;;;;;;;87.10;48.50;;;9.80;99.90;;;;;;5060010;28;20444;-80
2022/03/29 09:20:20;;;;;;;84.33;45.27;;;9.80;99.90;;;;;;5058338;28;20459;-81
2022/03/29 09:22:49;;;;;;;89.03;48.10;;;9.90;99.90;;;;;;5060782;28;20475;-79
2022/03/29 09:25:18;;;;;;;87.63;48.70;;;9.90;99.90;;;;;;5057373;28;20539;-80
2022/03/29 09:28:10;;;;;;;88.10;48.57;;;9.80;99.90;;;;;;5051664;28;20459;-80
2022/03/29 09:30:39;;;;;;;83.50;45.80;;;9.90;99.90;;;;;;5051994;28;20547;-79
2022/03/29 09:33:08;;;;;;;88.60;46.57;;;10.10;99.90;;;;;;5056140;28;20444;-81
2022/03/29 09:35:53;;;;;;;118.57;54.37;;;10.30;99.90;;;;;;5076742;28;20446;-82
2022/03/29 09:38:26;;;;;;;117.40;54.70;;;10.30;99.90;;;;;;5074580;28;20482;-81
2022/03/29 09:40:54;;;;;;;116.40;53.03;;;10.10;99.90;;;;;;5064017;28;20564;-82
2022/03/29 09:43:23;;;;;;;115.27;56.43;;;10.00;99.90;;;;;;5066394;28;20878;-81
2022/03/29 09:45:52;;;;;;;108.80;52.80;;;10.10;99.90;;;;;;5050334;28;20455;-81
2022/03/29 09:48:38;;;;;;;117.03;51.87;;;10.20;99.90;;;;;;5056048;28;21177;-80
2022/03/29 09:51:21;;;;;;;108.03;52.50;;;10.30;99.90;;;;;;5058379;28;20598;-81
2022/03/29 09:53:51;;;;;;;109.00;49.97;;;10.50;99.90;;;;;;5059998;28;20444;-81
2022/03/29 09:56:24;;;;;;;96.10;49.60;;;10.40;99.90;;;;;;5059514;28;20459;-81
2022/03/29 09:59:02;;;;;;;110.40;52.27;;;10.60;99.90;;;;;;5059808;28;20445;-81
2022/03/29 10:01:34;;;;;;;112.47;55.03;;;10.30;99.90;;;;;;5047307;28;20558;-81
2022/03/29 10:04:02;;;;;;;118.90;55.60;;;10.30;99.90;;;;;;5048825;28;20995;-80
2022/03/29 10:06:32;;;;;;;126.83;55.43;;;10.30;99.90;;;;;;5058314;28;20451;-81
2022/03/29 10:11:46;;;;;;;116.53;53.10;;;10.20;99.90;;;;;;5056501;28;20490;-81
2022/03/29 10:14:15;;;;;;;113.83;57.30;;;10.20;99.90;;;;;;5049614;28;20845;-81
2022/03/29 10:16:44;;;;;;;126.87;58.30;;;10.20;99.90;;;;;;5049032;28;20517;-82
2022/03/29 10:19:12;;;;;;;122.63;59.67;;;10.20;99.90;;;;;;5064399;28;20545;-80
2022/03/29 10:21:42;;;;;;;101.13;50.57;;;10.30;99.90;;;;;;5064618;28;20488;-81
2022/03/29 10:24:09;;;;;;;103.37;50.60;;;10.40;99.90;;;;;;5067674;28;20462;-81
2022/03/29 10:26:36;;;;;;;87.47;46.07;;;10.30;99.90;;;;;;5076829;28;20535;-80
2022/03/29 10:29:06;;;;;;;84.30;45.97;;;10.50;99.90;;;;;;5061408;28;20454;-83
2022/03/29 10:31:36;;;;;;;82.10;45.40;;;10.60;99.90;;;;;;5061036;28;20469;-82
2022/03/29 10:34:16;;;;;;;105.57;51.60;;;10.60;99.90;;;;;;5063773;28;20458;-79
2022/03/29 10:37:17;;;;;;;92.93;48.30;;;10.70;99.90;;;;;;5084892;28;20445;-81
2022/03/29 10:39:47;;;;;;;97.27;49.40;;;10.70;99.90;;;;;;5063433;28;20447;-80
2022/03/29 10:42:36;;;;;;;102.67;50.80;;;10.80;99.90;;;;;;5060160;28;20566;-81
2022/03/29 10:45:19;;;;;;;95.33;52.20;;;10.70;99.90;;;;;;5059225;28;20483;-82
2022/03/29 10:47:47;;;;;;;101.23;51.87;;;10.70;99.90;;;;;;5059485;28;20486;-81
2022/03/29 10:50:16;;;;;;;109.87;51.73;;;10.90;99.90;;;;;;5060006;28;20451;-81
2022/03/29 10:52:46;;;;;;;114.50;51.47;;;10.70;99.90;;;;;;5063146;28;20471;-81
2022/03/29 10:55:20;;;;;;;107.60;53.40;;;10.60;99.90;;;;;;5062383;28;20452;-81
2022/03/29 10:58:12;;;;;;;117.20;53.67;;;10.50;99.90;;;;;;5060531;28;20438;-81
2022/03/29 11:00:41;;;;;;;114.17;53.07;;;10.70;99.90;;;;;;5051316;28;20447;-80
2022/03/29 11:03:16;;;;;;;114.43;53.13;;;10.90;99.90;;;;;;5066377;28;20483;-80
2022/03/29 11:06:06;;;;;;;108.23;51.17;;;11.20;99.90;;;;;;5064096;28;20479;-81
2022/03/29 11:08:36;;;;;;;110.13;54.13;;;11.20;99.90;;;;;;5065114;28;20451;-80
2022/03/29 11:11:04;;;;;;;111.20;50.50;;;11.60;99.90;;;;;;5063752;28;20476;-81
2022/03/29 11:13:32;;;;;;;101.30;50.77;;;11.70;99.90;;;;;;5064178;28;20544;-80
2022/03/29 11:16:02;;;;;;;106.00;52.20;;;11.80;99.90;;;;;;5062961;28;20543;-81
2022/03/29 11:18:50;;;;;;;108.37;51.13;;;11.50;99.90;;;;;;5070180;28;20888;-83
2022/03/29 11:21:44;;;;;;;117.70;52.90;;;11.50;99.90;;;;;;5059357;28;20480;-81
2022/03/29 11:24:15;;;;;;;105.77;49.17;;;11.60;99.90;;;;;;5027513;28;20539;-83
2022/03/29 11:26:57;;;;;;;111.50;51.03;;;11.60;99.90;;;;;;5062062;28;20456;-82
2022/03/29 11:29:24;;;;;;;113.67;54.37;;;11.90;99.90;;;;;;5059470;28;20456;-81
2022/03/29 11:31:56;;;;;;;101.93;50.63;;;11.80;99.90;;;;;;5063474;28;21078;-80
2022/03/29 11:34:23;;;;;;;101.47;47.53;;;12.10;99.90;;;;;;5056653;28;20512;-82
2022/03/29 11:36:50;;;;;;;92.70;46.53;;;11.90;99.90;;;;;;5063407;28;20459;-82
2022/03/29 11:39:30;;;;;;;95.30;48.93;;;12.10;99.90;;;;;;5059464;28;20453;-82
2022/03/29 11:41:57;;;;;;;85.03;44.73;;;12.20;99.90;;;;;;5053426;28;20938;-82
2022/03/29 11:44:26;;;;;;;71.47;40.23;;;12.20;99.90;;;;;;5051980;28;20465;-81
2022/03/29 11:46:58;;;;;;;83.10;43.03;;;12.20;99.90;;;;;;5050712;28;20879;-82
2022/03/29 11:49:27;;;;;;;80.83;43.83;;;12.30;99.90;;;;;;5052836;28;20447;-82
2022/03/29 11:52:11;;;;;;;74.27;41.30;;;12.30;99.90;;;;;;5062601;28;20528;-82
2022/03/29 11:54:45;;;;;;;82.90;46.10;;;12.20;99.90;;;;;;5058477;28;20547;-82
2022/03/29 11:57:20;;;;;;;79.80;43.63;;;12.40;99.90;;;;;;5056355;28;20463;-82
2022/03/29 11:59:47;;;;;;;66.03;37.90;;;12.30;99.90;;;;;;5054024;28;20980;-81
2022/03/29 12:02:28;;;;;;;69.77;40.30;;;12.00;99.90;;;;;;5050080;28;20503;-80
2022/03/29 12:04:55;;;;;;;76.33;40.30;;;11.70;99.90;;;;;;5053436;28;20457;-83
2022/03/29 12:07:36;;;;;;;75.67;40.33;;;11.80;99.90;;;;;;5055369;28;20457;-81
2022/03/29 12:10:08;;;;;;;66.87;38.17;;;11.40;99.90;;;;;;5057029;28;20452;-80
2022/03/29 12:12:34;;;;;;;63.27;37.17;;;11.50;99.90;;;;;;5049961;28;20461;-83
2022/03/29 12:15:22;;;;;;;63.67;36.13;;;11.50;99.90;;;;;;5051997;28;20460;-82
2022/03/29 12:21:11;;;;;;;65.10;37.13;;;11.80;99.90;;;;;;5053146;28;20465;-83
2022/03/29 12:23:38;;;;;;;62.17;36.30;;;11.90;99.90;;;;;;5056517;28;20456;-83
2022/03/29 12:26:08;;;;;;;56.90;35.50;;;12.10;99.90;;;;;;5051902;28;20437;-82
2022/03/29 12:28:34;;;;;;;57.57;35.67;;;12.20;99.90;;;;;;5054708;28;20467;-84
2022/03/29 12:31:02;;;;;;;62.40;38.70;;;12.40;99.90;;;;;;5059935;28;20553;-82
2022/03/29 12:33:28;;;;;;;53.93;34.23;;;12.40;99.90;;;;;;5059801;28;20450;-84
2022/03/29 12:36:03;;;;;;;50.57;33.50;;;12.60;99.90;;;;;;5060732;28;20460;-83
2022/03/29 12:38:40;;;;;;;52.70;33.93;;;13.00;99.90;;;;;;5057788;28;20513;-83
2022/03/29 12:41:11;;;;;;;52.20;33.67;;;13.10;99.90;;;;;;5048059;28;20861;-83
2022/03/29 12:43:38;;;;;;;47.77;31.40;;;12.90;99.90;;;;;;5057188;28;20472;-82
2022/03/29 12:46:09;;;;;;;53.50;34.17;;;12.90;99.90;;;;;;5059087;28;20507;-83
2022/03/29 12:48:38;;;;;;;43.47;29.27;;;13.20;99.90;;;;;;5076285;28;20421;-85
2022/03/29 12:51:06;;;;;;;44.63;31.13;;;13.30;99.90;;;;;;5079150;28;20468;-83
2022/03/29 12:53:34;;;;;;;46.87;32.20;;;13.40;99.90;;;;;;5078290;28;20443;-84
2022/03/29 12:56:06;;;;;;;44.23;30.93;;;13.80;99.90;;;;;;5078814;28;20463;-84